Time;durP1;ratioP1;P1;durP2;ratioP2;P2;SDS_P1;SDS_P2;PMS_P1;PMS_P2;Temp;Humidity;BMP_temperature;BMP_pressure;BME280_temperature;BME280_humidity;BME280_pressure;Samples;Min_cycle;Max_cycle;Signal;HPM_P1;HPM_P2
2022/05/31 00:00:48;;;;;;;;;;;;;;;8.73;77.89;98937.56;7867277;30;19980;-73
2022/05/31 00:04:50;;;;;;;;;;;;;;;8.64;77.83;98935.03;7874798;30;19944;-73
2022/05/31 00:08:52;;;;;;;;;;;;;;;8.58;78.27;98927.28;7867191;30;19969;-72
2022/05/31 00:12:54;;;;;;;;;;;;;;;8.54;78.49;98930.75;7856817;30;19980;-73
2022/05/31 00:16:56;;;;;;;;;;;;;;;8.57;78.71;98935.91;7871600;30;20370;-73
2022/05/31 00:20:57;;;;;;;;;;;;;;;8.53;78.79;98931.63;7870665;30;20328;-73
2022/05/31 00:24:59;;;;;;;;;;;;;;;8.59;78.20;98932.44;7871322;30;19929;-72
2022/05/31 00:29:01;;;;;;;;;;;;;;;8.61;78.34;98928.13;7872103;30;20583;-73
2022/05/31 00:33:02;;;;;;;;;;;;;;;8.61;78.34;98925.53;7880146;30;20400;-73
2022/05/31 00:37:04;;;;;;;;;;;;;;;8.55;79.08;98922.97;7892469;30;20439;-72
2022/05/31 00:41:23;;;;;;;;;;;;;;;8.52;79.14;98920.41;7877889;30;19929;-72
2022/05/31 00:45:33;;;;;;;;;;;;;;;8.45;79.07;98924.75;7873466;30;19976;-72
2022/05/31 00:49:37;;;;;;;;;;;;;;;8.41;79.14;98917.84;7890507;30;19934;-73
2022/05/31 00:53:43;;;;;;;;;;;;;;;8.38;78.69;98929.94;7873816;30;19956;-73
2022/05/31 00:57:49;;;;;;;;;;;;;;;8.35;79.09;98927.38;7875914;30;19991;-74
2022/05/31 01:01:52;;;;;;;;;;;;;;;8.33;79.52;98929.06;7868362;30;19930;-73
2022/05/31 01:05:54;;;;;;;;;;;;;;;8.26;79.98;98925.66;7873586;30;19930;-73
2022/05/31 01:09:56;;;;;;;;;;;;;;;8.25;79.47;98933.38;7871269;30;20420;-73
2022/05/31 01:13:57;;;;;;;;;;;;;;;8.15;80.04;98933.41;7867146;30;19934;-73
2022/05/31 01:17:58;;;;;;;;;;;;;;;8.16;79.95;98923.94;7859266;30;19965;-73
2022/05/31 01:22:00;;;;;;;;;;;;;;;8.11;79.75;98926.53;7891432;29;19940;-73
2022/05/31 01:26:09;;;;;;;;;;;;;;;8.04;79.57;98916.19;7873682;30;20339;-73
2022/05/31 01:30:11;;;;;;;;;;;;;;;8.03;79.57;98914.47;7874197;30;20303;-73
2022/05/31 01:34:25;;;;;;;;;;;;;;;7.88;79.30;98916.22;7857870;30;20387;-73
2022/05/31 01:38:33;;;;;;;;;;;;;;;7.81;79.83;98916.25;7874637;30;19971;-73
2022/05/31 01:42:37;;;;;;;;;;;;;;;7.74;79.57;98909.38;7875460;30;19965;-73
2022/05/31 01:46:39;;;;;;;;;;;;;;;7.66;79.77;98906.78;7868324;30;19940;-73
2022/05/31 01:50:40;;;;;;;;;;;;;;;7.64;79.71;98900.75;7870026;30;19972;-73
2022/05/31 01:54:43;;;;;;;;;;;;;;;7.58;79.57;98899.03;7872976;30;20348;-72
2022/05/31 01:58:47;;;;;;;;;;;;;;;7.44;79.81;98905.06;7870308;30;20027;-71
2022/05/31 02:02:50;;;;;;;;;;;;;;;7.24;80.28;98911.06;7884297;30;19940;-71
2022/05/31 02:07:10;;;;;;;;;;;;;;;7.18;80.89;98905.91;7875405;30;19938;-73
2022/05/31 02:11:11;;;;;;;;;;;;;;;7.14;81.19;98909.31;7881281;30;19987;-72
2022/05/31 02:15:13;;;;;;;;;;;;;;;7.14;81.14;98909.31;7861352;30;20244;-73
2022/05/31 02:19:25;;;;;;;;;;;;;;;7.08;81.22;98906.75;7875496;30;19940;-73
2022/05/31 02:23:26;;;;;;;;;;;;;;;7.06;81.09;98899.88;7874425;30;20636;-73
2022/05/31 02:27:29;;;;;;;;;;;;;;;6.98;81.28;98902.41;7881132;30;19929;-73
2022/05/31 02:31:31;;;;;;;;;;;;;;;6.90;81.25;98897.25;7879949;30;19952;-73
2022/05/31 02:35:32;;;;;;;;;;;;;;;6.86;81.03;98900.69;7877449;30;20053;-73
2022/05/31 02:39:34;;;;;;;;;;;;;;;6.71;81.54;98895.47;7876963;30;20564;-73
2022/05/31 02:43:36;;;;;;;;;;;;;;;6.68;82.06;98887.72;7877842;30;20025;-73
2022/05/31 02:47:39;;;;;;;;;;;;;;;6.65;82.08;98890.31;7864526;30;19961;-73
2022/05/31 02:51:42;;;;;;;;;;;;;;;6.57;82.25;98892.00;7880911;30;19980;-73
2022/05/31 02:55:44;;;;;;;;;;;;;;;6.53;82.07;98888.53;7873531;30;19930;-73
2022/05/31 02:59:45;;;;;;;;;;;;;;;6.43;82.05;98886.78;7880516;30;19930;-73
2022/05/31 03:03:46;;;;;;;;;;;;;;;6.43;82.62;98875.59;7872470;30;20428;-71
2022/05/31 03:07:48;;;;;;;;;;;;;;;6.44;82.77;98879.88;7890509;30;20340;-71
2022/05/31 03:11:49;;;;;;;;;;;;;;;6.47;82.93;98883.38;7871127;30;20338;-71
2022/05/31 03:15:53;;;;;;;;;;;;;;;6.45;82.47;98890.22;7869791;30;19969;-71
2022/05/31 03:20:01;;;;;;;;;;;;;;;6.43;82.69;98878.16;7871457;30;19930;-71
2022/05/31 03:24:08;;;;;;;;;;;;;;;6.36;82.29;98883.31;7855665;30;20168;-72
2022/05/31 03:28:10;;;;;;;;;;;;;;;6.25;82.95;98884.97;7873131;30;20021;-72
2022/05/31 03:32:12;;;;;;;;;;;;;;;6.17;82.89;98884.09;7879707;30;19934;-72
2022/05/31 03:36:14;;;;;;;;;;;;;;;6.07;82.62;98872.00;7868367;30;20765;-73
2022/05/31 03:40:56;;;;;;;;;;;;;;;6.03;83.10;98875.41;7878442;30;20032;-73
2022/05/31 03:44:37;;;;;;;;;;;;;;;6.09;83.08;98882.31;7870094;30;19937;-73
2022/05/31 03:48:39;;;;;;;;;;;;;;;5.95;82.88;98893.44;7871523;30;19961;-73
2022/05/31 03:52:40;;;;;;;;;;;;;;;5.98;83.11;98883.13;7874069;30;19930;-73
2022/05/31 03:56:41;;;;;;;;;;;;;;;6.00;83.35;98876.28;7867874;30;19941;-71
2022/05/31 04:00:43;;;;;;;;;;;;;;;6.01;83.16;98870.25;7876209;30;20031;-72
2022/05/31 04:04:44;;;;;;;;;;;;;;;6.02;82.86;98871.97;7873907;30;20465;-72
2022/05/31 04:08:46;;;;;;;;;;;;;;;6.05;82.97;98864.25;7872423;30;20678;-73
2022/05/31 04:12:47;;;;;;;;;;;;;;;6.05;82.71;98866.84;7874893;30;19965;-71
2022/05/31 04:16:49;;;;;;;;;;;;;;;6.04;82.79;98864.25;7879457;30;19934;-72
2022/05/31 04:20:50;;;;;;;;;;;;;;;6.06;83.27;98870.28;7875757;30;19930;-72
2022/05/31 04:24:54;;;;;;;;;;;;;;;6.19;83.66;98872.06;7873735;30;19929;-73
2022/05/31 04:28:56;;;;;;;;;;;;;;;6.30;83.73;98867.84;7875476;30;19980;-71
2022/05/31 04:32:57;;;;;;;;;;;;;;;6.40;83.61;98870.44;7865193;30;20478;-72
2022/05/31 04:37:00;;;;;;;;;;;;;;;6.56;83.51;98872.22;7874127;30;20071;-71
2022/05/31 04:41:01;;;;;;;;;;;;;;;6.69;82.87;98865.38;7859154;30;19940;-73
2022/05/31 04:45:03;;;;;;;;;;;;;;;6.71;83.04;98874.84;7880329;30;19969;-72
2022/05/31 04:49:05;;;;;;;;;;;;;;;6.80;83.23;98873.97;7874303;30;19969;-73
2022/05/31 04:53:06;;;;;;;;;;;;;;;7.00;83.23;98866.28;7874918;30;19930;-73
2022/05/31 04:57:08;;;;;;;;;;;;;;;7.23;83.08;98865.47;7873445;30;19969;-74
2022/05/31 05:01:09;;;;;;;;;;;;;;;7.50;83.04;98874.91;7877329;30;20471;-76
2022/05/31 05:05:11;;;;;;;;;;;;;;;7.70;82.91;98877.47;7885064;30;20264;-75
2022/05/31 05:09:12;;;;;;;;;;;;;;;7.97;82.39;98876.59;7869060;30;19940;-75
2022/05/31 05:13:13;;;;;;;;;;;;;;;8.21;81.95;98888.56;7869143;30;19934;-77
2022/05/31 05:17:15;;;;;;;;;;;;;;;8.46;81.59;98885.09;7878907;30;19965;-76
2022/05/31 05:21:16;;;;;;;;;;;;;;;8.75;80.96;98889.25;7888794;30;19929;-75
2022/05/31 05:25:18;;;;;;;;;;;;;;;9.11;79.67;98888.16;7876554;30;19930;-75
2022/05/31 05:33:39;;;;;;;;;;;;;;;10.29;75.93;98898.38;7875585;30;20544;-74
2022/05/31 05:37:42;;;;;;;;;;;;;;;10.90;73.43;98884.63;7871962;30;19930;-75
2022/05/31 05:41:43;;;;;;;;;;;;;;;11.66;70.24;98872.19;7880474;30;19933;-75
2022/05/31 05:45:45;;;;;;;;;;;;;;;12.45;65.69;98872.47;7875056;30;20024;-75
2022/05/31 05:49:46;;;;;;;;;;;;;;;13.07;62.13;98875.47;7875855;30;20311;-75
2022/05/31 05:53:47;;;;;;;;;;;;;;;13.71;59.30;98882.66;7879609;30;19996;-75
2022/05/31 05:57:49;;;;;;;;;;;;;;;14.27;57.69;98885.53;7880257;30;19949;-75
2022/05/31 06:01:53;;;;;;;;;;;;;;;14.91;55.12;98877.63;7880356;30;20416;-76
2022/05/31 06:06:16;;;;;;;;;;;;;;;15.47;54.15;98872.38;7884448;30;19938;-75
2022/05/31 06:10:20;;;;;;;;;;;;;;;16.09;51.96;98878.13;7882643;30;19936;-75
2022/05/31 06:14:30;;;;;;;;;;;;;;;16.75;49.65;98873.19;7877480;30;19980;-75
2022/05/31 06:18:35;;;;;;;;;;;;;;;17.29;48.64;98870.19;7880779;30;20005;-75
2022/05/31 06:22:38;;;;;;;;;;;;;;;17.72;46.96;98868.44;7878889;30;19943;-76
2022/05/31 06:26:39;;;;;;;;;;;;;;;17.90;46.15;98861.56;7891213;30;19930;-77
2022/05/31 06:30:41;;;;;;;;;;;;;;;17.80;46.84;98855.88;7881365;30;20111;-77
2022/05/31 06:34:43;;;;;;;;;;;;;;;16.94;48.96;98868.94;7895029;30;19972;-77
2022/05/31 06:38:45;;;;;;;;;;;;;;;16.32;50.42;98870.31;7877274;30;20331;-77
2022/05/31 06:42:46;;;;;;;;;;;;;;;16.56;49.82;98867.72;7880867;30;20015;-77
2022/05/31 06:46:48;;;;;;;;;;;;;;;17.36;47.83;98871.63;7878652;30;19977;-76
2022/05/31 06:50:49;;;;;;;;;;;;;;;17.79;47.26;98872.53;7874004;30;19938;-77
2022/05/31 06:59:12;;;;;;;;;;;;;;;18.04;46.30;98865.31;7874964;30;20305;-75
2022/05/31 07:03:13;;;;;;;;;;;;;;;17.79;45.89;98867.28;7870598;30;19952;-74
2022/05/31 07:07:15;;;;;;;;;;;;;;;18.10;46.00;98866.81;7873312;30;19929;-75
2022/05/31 07:11:16;;;;;;;;;;;;;;;18.24;45.44;98871.47;7877770;30;20443;-74
2022/05/31 07:15:18;;;;;;;;;;;;;;;18.11;46.04;98865.88;7875095;30;19940;-75
2022/05/31 07:19:19;;;;;;;;;;;;;;;18.20;46.85;98844.47;7871921;30;19940;-73
2022/05/31 07:23:21;;;;;;;;;;;;;;;18.53;46.04;98843.91;7872167;30;19940;-77
2022/05/31 07:27:22;;;;;;;;;;;;;;;18.76;45.56;98840.25;7875789;30;20017;-74
2022/05/31 07:31:23;;;;;;;;;;;;;;;19.04;44.52;98848.56;7879072;30;20057;-74
2022/05/31 07:35:27;;;;;;;;;;;;;;;18.96;44.58;98855.94;7879878;30;19930;-76
2022/05/31 07:39:29;;;;;;;;;;;;;;;19.21;44.40;98850.34;7882949;30;19942;-76
2022/05/31 07:43:31;;;;;;;;;;;;;;;19.37;43.28;98858.38;7873359;30;20785;-75
2022/05/31 07:47:32;;;;;;;;;;;;;;;19.45;42.40;98853.59;7884861;30;19965;-75
2022/05/31 07:51:34;;;;;;;;;;;;;;;19.48;42.43;98850.81;7876618;30;19945;-75
2022/05/31 07:55:35;;;;;;;;;;;;;;;19.23;42.18;98859.91;7882975;30;19926;-75
2022/05/31 07:59:37;;;;;;;;;;;;;;;19.45;43.66;98849.19;7882240;30;20687;-75
2022/05/31 08:03:39;;;;;;;;;;;;;;;19.43;43.14;98850.19;7877522;30;19929;-76
2022/05/31 08:07:41;;;;;;;;;;;;;;;19.38;41.78;98853.03;7900667;30;19945;-76
2022/05/31 08:11:42;;;;;;;;;;;;;;;19.58;41.94;98858.22;7880650;30;20372;-76
2022/05/31 08:15:43;;;;;;;;;;;;;;;19.73;41.29;98850.47;7880245;30;19934;-77
2022/05/31 08:19:45;;;;;;;;;;;;;;;20.08;41.61;98860.06;7871157;30;19933;-76
2022/05/31 08:23:47;;;;;;;;;;;;;;;20.07;40.47;98866.25;7881189;30;19929;-76
2022/05/31 08:27:48;;;;;;;;;;;;;;;20.24;41.12;98862.75;7876555;30;19940;-76
2022/05/31 08:31:50;;;;;;;;;;;;;;;20.63;41.57;98859.81;7877723;30;19945;-77
2022/05/31 08:35:51;;;;;;;;;;;;;;;20.52;40.62;98860.41;7895570;30;19930;-75
2022/05/31 08:40:08;;;;;;;;;;;;;;;20.36;41.05;98869.19;7876290;30;20391;-75
2022/05/31 08:44:31;;;;;;;;;;;;;;;20.26;42.58;98862.66;7876241;30;19929;-75
2022/05/31 08:48:35;;;;;;;;;;;;;;;19.67;41.27;98862.16;7879071;30;19929;-75
2022/05/31 08:52:40;;;;;;;;;;;;;;;19.98;41.80;98863.25;7874142;30;20040;-74
2022/05/31 08:56:57;;;;;;;;;;;;;;;19.90;40.98;98867.13;7874241;30;19930;-74
2022/05/31 09:01:02;;;;;;;;;;;;;;;20.16;42.22;98860.53;7885857;30;19938;-75
2022/05/31 09:05:20;;;;;;;;;;;;;;;20.55;43.42;98862.03;7878317;30;19944;-74
2022/05/31 09:09:27;;;;;;;;;;;;;;;20.76;41.38;98858.22;7877501;30;19933;-74
2022/05/31 09:13:42;;;;;;;;;;;;;;;20.93;41.61;98861.72;7892960;30;19933;-73
2022/05/31 09:17:51;;;;;;;;;;;;;;;21.26;42.98;98861.69;7877180;30;20588;-73
2022/05/31 09:21:52;;;;;;;;;;;;;;;21.63;42.47;98865.72;7875957;30;19939;-73
2022/05/31 09:26:09;;;;;;;;;;;;;;;21.83;40.10;98859.25;7878380;30;19987;-71
2022/05/31 09:30:11;;;;;;;;;;;;;;;21.80;40.95;98867.38;7877001;30;20525;-73
2022/05/31 09:34:13;;;;;;;;;;;;;;;21.98;40.24;98858.34;7871313;30;19930;-73
2022/05/31 09:38:17;;;;;;;;;;;;;;;22.00;39.99;98857.31;7873588;30;19930;-73
2022/05/31 09:42:21;;;;;;;;;;;;;;;21.89;39.10;98854.44;7875223;30;19929;-73
2022/05/31 09:46:31;;;;;;;;;;;;;;;22.02;39.86;98855.44;7880061;30;19976;-72
2022/05/31 09:50:33;;;;;;;;;;;;;;;22.14;39.21;98853.03;7894228;29;20009;-73
2022/05/31 09:59:21;;;;;;;;;;;;;;;22.44;38.49;98850.31;7888774;29;19929;-73
2022/05/31 10:03:32;;;;;;;;;;;;;;;22.47;39.60;98858.06;7869523;30;19976;-72
2022/05/31 10:07:34;;;;;;;;;;;;;;;22.25;37.78;98851.44;7874535;30;19963;-72
2022/05/31 10:11:44;;;;;;;;;;;;;;;22.46;38.88;98849.28;7880697;30;21216;-72
2022/05/31 10:15:51;;;;;;;;;;;;;;;22.37;38.38;98849.84;7873261;30;19940;-71
2022/05/31 10:20:05;;;;;;;;;;;;;;;22.38;36.36;98842.75;7883090;30;19941;-72
2022/05/31 10:24:08;;;;;;;;;;;;;;;22.25;36.84;98843.50;7869817;30;19929;-72
2022/05/31 10:28:12;;;;;;;;;;;;;;;22.12;36.42;98844.34;7873072;30;19983;-73
2022/05/31 10:32:46;;;;;;;;;;;;;;;22.33;36.41;98848.34;7873340;30;19963;-73
2022/05/31 10:36:50;;;;;;;;;;;;;;;22.88;36.66;98839.63;7884690;30;19968;-72
2022/05/31 10:40:54;;;;;;;;;;;;;;;23.19;37.75;98836.72;7872118;30;19964;-74
2022/05/31 10:45:02;;;;;;;;;;;;;;;23.67;36.51;98839.75;7868336;30;19930;-73
2022/05/31 10:49:10;;;;;;;;;;;;;;;23.89;34.02;98831.25;7863514;30;19930;-73
2022/05/31 10:53:12;;;;;;;;;;;;;;;23.37;34.05;98841.78;7869612;30;19937;-74
2022/05/31 10:57:17;;;;;;;;;;;;;;;23.41;33.61;98836.16;7870363;30;19941;-73
2022/05/31 11:01:21;;;;;;;;;;;;;;;22.97;30.68;98839.03;7872029;30;19952;-74
2022/05/31 11:05:29;;;;;;;;;;;;;;;22.56;33.65;98836.31;7877494;30;20399;-74
2022/05/31 11:13:59;;;;;;;;;;;;;;;23.07;34.13;98849.91;7874593;30;19930;-73
2022/05/31 11:18:10;;;;;;;;;;;;;;;23.18;33.39;98842.13;7875981;30;20671;-73
2022/05/31 11:22:14;;;;;;;;;;;;;;;23.29;33.94;98852.00;7874861;30;20725;-74
2022/05/31 11:26:42;;;;;;;;;;;;;;;23.65;31.48;98843.47;7886717;30;20021;-74
2022/05/31 11:31:06;;;;;;;;;;;;;;;23.96;32.67;98834.31;7874896;30;19929;-74
2022/05/31 11:35:09;;;;;;;;;;;;;;;24.18;32.74;98839.00;7875772;29;19978;-73
2022/05/31 11:39:20;;;;;;;;;;;;;;;24.51;30.35;98833.19;7888745;29;19937;-74
2022/05/31 11:43:24;;;;;;;;;;;;;;;23.95;28.63;98841.41;7877166;30;20574;-74
2022/05/31 11:47:37;;;;;;;;;;;;;;;23.80;31.01;98840.66;7869767;30;19930;-73
2022/05/31 11:51:48;;;;;;;;;;;;;;;24.16;30.31;98833.78;7883581;29;19930;-72
2022/05/31 11:56:07;;;;;;;;;;;;;;;23.78;28.96;98834.59;7865413;30;19987;-72
2022/05/31 12:00:11;;;;;;;;;;;;;;;23.52;29.63;98831.03;7874739;30;19930;-73
2022/05/31 12:04:13;;;;;;;;;;;;;;;23.09;29.68;98835.59;7868531;30;19929;-72
2022/05/31 12:08:23;;;;;;;;;;;;;;;22.83;31.02;98829.34;7886305;30;19940;-72
2022/05/31 12:12:30;;;;;;;;;;;;;;;23.15;30.86;98834.34;7869942;30;19984;-72
2022/05/31 12:16:32;;;;;;;;;;;;;;;23.88;31.98;98815.41;7869709;30;19937;-72
2022/05/31 12:20:48;;;;;;;;;;;;;;;24.33;29.90;98825.53;7871713;30;19938;-72
2022/05/31 12:24:53;;;;;;;;;;;;;;;24.03;29.72;98823.16;7870023;30;19930;-72
2022/05/31 12:29:11;;;;;;;;;;;;;;;23.81;29.71;98820.28;7876053;30;20037;-73
2022/05/31 12:33:25;;;;;;;;;;;;;;;24.15;30.88;98804.72;7869339;30;20678;-74
2022/05/31 12:37:26;;;;;;;;;;;;;;;24.64;29.92;98803.00;7871171;30;20013;-73
2022/05/31 12:41:32;;;;;;;;;;;;;;;24.40;29.66;98800.25;7878663;30;20021;-73
2022/05/31 12:45:33;;;;;;;;;;;;;;;24.38;29.15;98811.94;7879398;30;20017;-73
2022/05/31 12:49:37;;;;;;;;;;;;;;;24.55;28.58;98808.09;7880482;30;19933;-72
2022/05/31 12:53:38;;;;;;;;;;;;;;;24.64;29.30;98816.28;7879731;30;19969;-73
2022/05/31 13:02:04;;;;;;;;;;;;;;;24.47;29.74;98813.13;7877999;30;19969;-71
2022/05/31 13:06:07;;;;;;;;;;;;;;;24.09;30.00;98819.25;7867666;30;19930;-72
2022/05/31 13:10:27;;;;;;;;;;;;;;;23.83;30.23;98818.38;7874567;30;20415;-72
2022/05/31 13:23:14;;;;;;;;;;;;;;;23.44;32.01;98814.75;7882191;30;19940;-72
2022/05/31 13:27:22;;;;;;;;;;;;;;;23.62;31.59;98815.38;7879895;30;19963;-72
2022/05/31 13:31:24;;;;;;;;;;;;;;;23.61;30.65;98813.69;7876121;30;19992;-73
2022/05/31 13:35:28;;;;;;;;;;;;;;;23.66;32.47;98813.34;7881918;30;19936;-72
2022/05/31 13:39:37;;;;;;;;;;;;;;;23.51;31.12;98813.38;7873771;30;19991;-73
2022/05/31 13:43:40;;;;;;;;;;;;;;;23.38;31.59;98812.53;7873069;30;19930;-72
2022/05/31 13:47:55;;;;;;;;;;;;;;;23.55;30.72;98808.75;7889830;30;19964;-73
2022/05/31 13:52:24;;;;;;;;;;;;;;;23.60;31.33;98809.31;7875234;30;20043;-72
2022/05/31 13:56:25;;;;;;;;;;;;;;;23.35;31.15;98798.63;7886473;30;19940;-72
2022/05/31 14:00:40;;;;;;;;;;;;;;;23.43;31.88;98801.63;7866625;30;20002;-72
2022/05/31 14:04:41;;;;;;;;;;;;;;;23.24;31.88;98799.34;7872015;30;19929;-72
2022/05/31 14:08:48;;;;;;;;;;;;;;;23.10;31.36;98786.97;7860031;30;19930;-72
2022/05/31 14:12:51;;;;;;;;;;;;;;;23.11;33.95;98787.84;7873184;30;20021;-72
2022/05/31 14:16:54;;;;;;;;;;;;;;;23.44;32.47;98790.06;7869483;30;20323;-73
2022/05/31 14:21:00;;;;;;;;;;;;;;;23.07;30.45;98800.44;7874932;30;19969;-72
2022/05/31 14:25:04;;;;;;;;;;;;;;;22.86;31.08;98800.03;7869314;30;20012;-72
2022/05/31 14:29:14;;;;;;;;;;;;;;;22.60;31.58;98792.84;7868284;30;20019;-72
2022/05/31 14:33:18;;;;;;;;;;;;;;;22.43;31.09;98787.75;7873210;30;19988;-72
2022/05/31 14:37:38;;;;;;;;;;;;;;;22.27;32.33;98793.16;7872988;30;20415;-72
2022/05/31 14:41:40;;;;;;;;;;;;;;;22.13;32.12;98801.09;7872264;30;20395;-71
2022/05/31 14:45:43;;;;;;;;;;;;;;;22.07;33.55;98804.94;7871072;30;20033;-72
2022/05/31 14:49:46;;;;;;;;;;;;;;;22.13;34.53;98807.22;7863603;30;20052;-72
2022/05/31 14:53:52;;;;;;;;;;;;;;;22.87;32.89;98798.22;7884593;30;19952;-71
2022/05/31 15:02:27;;;;;;;;;;;;;;;24.06;29.45;98799.09;7875452;30;20035;-72
2022/05/31 15:06:28;;;;;;;;;;;;;;;24.20;29.63;98795.47;7867515;30;19937;-73
2022/05/31 15:10:31;;;;;;;;;;;;;;;24.33;29.38;98799.00;7866083;30;20315;-73
2022/05/31 15:19:03;;;;;;;;;;;;;;;24.46;29.86;98791.03;7867310;30;19973;-73
2022/05/31 15:23:05;;;;;;;;;;;;;;;24.63;28.97;98796.00;7869169;30;19930;-73
2022/05/31 15:27:11;;;;;;;;;;;;;;;24.75;28.78;98801.38;7870939;30;19930;-73
2022/05/31 15:31:32;;;;;;;;;;;;;;;24.84;27.21;98801.56;7871753;30;19968;-73
2022/05/31 15:35:53;;;;;;;;;;;;;;;24.99;28.16;98792.53;7868703;30;19930;-73
2022/05/31 15:40:10;;;;;;;;;;;;;;;24.99;27.48;98797.84;7875623;30;19929;-74
2022/05/31 15:44:11;;;;;;;;;;;;;;;24.94;28.61;98799.06;7883401;30;19930;-74
2022/05/31 15:48:12;;;;;;;;;;;;;;;24.90;27.04;98800.28;7866037;30;19941;-73
2022/05/31 15:52:20;;;;;;;;;;;;;;;24.91;26.66;98796.66;7874275;30;20965;-73
2022/05/31 15:56:30;;;;;;;;;;;;;;;24.42;27.06;98810.81;7869921;30;19965;-74
2022/05/31 16:00:31;;;;;;;;;;;;;;;24.21;28.17;98806.94;7872104;30;20319;-73
2022/05/31 16:04:33;;;;;;;;;;;;;;;24.18;28.25;98808.00;7877875;30;20430;-72
2022/05/31 16:08:38;;;;;;;;;;;;;;;24.32;28.76;98797.31;7876750;30;19930;-73
2022/05/31 16:12:39;;;;;;;;;;;;;;;24.52;27.67;98801.22;7871666;30;20239;-72
2022/05/31 16:16:41;;;;;;;;;;;;;;;24.68;26.94;98806.28;7868996;30;19999;-72
2022/05/31 16:20:43;;;;;;;;;;;;;;;24.30;26.48;98803.69;7873493;30;20324;-72
2022/05/31 16:24:45;;;;;;;;;;;;;;;24.22;27.88;98806.81;7873245;30;20053;-72
2022/05/31 16:28:46;;;;;;;;;;;;;;;24.23;27.50;98799.72;7874882;30;19984;-73
2022/05/31 16:32:47;;;;;;;;;;;;;;;24.14;27.86;98800.38;7888509;30;19968;-72
2022/05/31 16:36:54;;;;;;;;;;;;;;;23.60;28.52;98798.72;7878506;30;19941;-72
2022/05/31 16:41:10;;;;;;;;;;;;;;;23.20;29.99;98805.78;7878496;30;19976;-72
2022/05/31 16:45:12;;;;;;;;;;;;;;;22.80;29.61;98804.81;7872141;30;19977;-72
2022/05/31 16:49:14;;;;;;;;;;;;;;;22.46;29.73;98809.59;7891089;30;19972;-72
2022/05/31 16:53:15;;;;;;;;;;;;;;;22.17;30.32;98813.19;7873534;30;19973;-72
2022/05/31 16:57:17;;;;;;;;;;;;;;;21.92;31.32;98824.38;7879406;30;19936;-72
2022/05/31 17:01:19;;;;;;;;;;;;;;;21.65;30.90;98830.31;7857236;30;19930;-72
2022/05/31 17:05:20;;;;;;;;;;;;;;;21.45;31.42;98824.50;7868958;30;19991;-72
2022/05/31 17:18:04;;;;;;;;;;;;;;;21.15;31.78;98840.25;7872261;30;19969;-72
2022/05/31 17:22:06;;;;;;;;;;;;;;;21.04;33.70;98844.38;7866826;30;19987;-72
2022/05/31 17:26:09;;;;;;;;;;;;;;;20.91;32.29;98845.97;7868672;30;19969;-72
2022/05/31 17:30:11;;;;;;;;;;;;;;;20.77;34.56;98854.66;7892408;30;19969;-74
2022/05/31 17:34:23;;;;;;;;;;;;;;;20.72;34.85;98850.56;7868468;30;19937;-74
2022/05/31 17:38:26;;;;;;;;;;;;;;;20.69;34.05;98864.78;7862953;30;19984;-75
2022/05/31 17:42:28;;;;;;;;;;;;;;;20.75;35.46;98860.94;7876123;30;19930;-75
2022/05/31 17:46:29;;;;;;;;;;;;;;;20.76;37.15;98860.00;7875705;30;20058;-76
2022/05/31 17:50:32;;;;;;;;;;;;;;;20.59;35.23;98860.91;7888984;30;19929;-76
2022/05/31 17:54:33;;;;;;;;;;;;;;;20.38;37.32;98873.44;7856456;30;19930;-75
2022/05/31 17:58:36;;;;;;;;;;;;;;;20.18;35.32;98873.63;7873279;30;19940;-76
2022/05/31 18:02:38;;;;;;;;;;;;;;;20.00;36.16;98874.56;7872165;30;20012;-76
2022/05/31 18:06:41;;;;;;;;;;;;;;;19.86;36.07;98877.91;7868909;30;20011;-76
2022/05/31 18:10:42;;;;;;;;;;;;;;;19.68;36.37;98884.09;7872671;30;20036;-75
2022/05/31 18:14:44;;;;;;;;;;;;;;;19.46;36.74;98893.00;7864443;30;20419;-75
2022/05/31 18:18:45;;;;;;;;;;;;;;;19.29;38.11;98901.72;7870372;30;19930;-75
2022/05/31 18:22:48;;;;;;;;;;;;;;;19.13;37.10;98897.25;7856422;30;19933;-75
2022/05/31 18:26:53;;;;;;;;;;;;;;;18.98;38.68;98904.09;7876364;30;20251;-75
2022/05/31 18:30:57;;;;;;;;;;;;;;;18.81;39.35;98912.75;7871339;30;19940;-76
2022/05/31 18:35:02;;;;;;;;;;;;;;;18.60;42.38;98911.06;7867377;30;19937;-75
2022/05/31 18:39:11;;;;;;;;;;;;;;;18.36;43.75;98913.84;7869387;30;20021;-75
2022/05/31 18:43:18;;;;;;;;;;;;;;;18.12;42.77;98928.88;7871748;30;20651;-75
2022/05/31 18:47:22;;;;;;;;;;;;;;;17.86;45.19;98928.28;7872271;30;20037;-73
2022/05/31 18:51:24;;;;;;;;;;;;;;;17.51;47.45;98927.91;7867109;30;20020;-71
2022/05/31 18:55:25;;;;;;;;;;;;;;;17.23;48.27;98938.63;7866567;30;20017;-73
2022/05/31 18:59:26;;;;;;;;;;;;;;;17.00;47.36;98939.50;7873994;30;19980;-73
2022/05/31 19:03:30;;;;;;;;;;;;;;;16.75;49.77;98938.72;7870675;30;19940;-73
2022/05/31 19:07:33;;;;;;;;;;;;;;;16.47;50.04;98941.44;7875260;30;20315;-73
2022/05/31 19:11:35;;;;;;;;;;;;;;;16.22;50.49;98944.94;7869762;30;19929;-73
2022/05/31 19:15:37;;;;;;;;;;;;;;;15.99;51.49;98943.09;7870836;30;19970;-73
2022/05/31 19:19:40;;;;;;;;;;;;;;;15.80;50.97;98938.50;7864805;30;19930;-72
2022/05/31 19:23:41;;;;;;;;;;;;;;;15.60;51.57;98947.84;7876377;30;19929;-72
2022/05/31 19:27:43;;;;;;;;;;;;;;;15.37;52.20;98959.00;7873981;30;19930;-73
2022/05/31 19:31:46;;;;;;;;;;;;;;;15.13;53.37;98967.59;7869076;30;19937;-72
2022/05/31 19:35:53;;;;;;;;;;;;;;;14.88;53.93;98971.81;7878506;30;20021;-72
2022/05/31 19:39:55;;;;;;;;;;;;;;;14.67;54.00;98978.50;7876705;30;20746;-74
2022/05/31 19:43:58;;;;;;;;;;;;;;;14.52;53.91;98980.63;7875492;30;19972;-74
2022/05/31 19:48:00;;;;;;;;;;;;;;;14.36;55.34;98984.53;7878878;30;19929;-74
2022/05/31 19:52:03;;;;;;;;;;;;;;;14.18;56.08;98982.38;7880197;30;19936;-74
2022/05/31 19:56:04;;;;;;;;;;;;;;;14.03;55.74;98994.09;7879349;30;19929;-74
2022/05/31 20:00:07;;;;;;;;;;;;;;;13.89;57.56;98997.03;7877867;30;19934;-74
2022/05/31 20:04:09;;;;;;;;;;;;;;;13.74;58.63;98997.38;7873817;30;19940;-73
2022/05/31 20:08:12;;;;;;;;;;;;;;;13.57;59.16;99008.22;7864509;30;20024;-74
2022/05/31 20:12:13;;;;;;;;;;;;;;;13.47;59.14;99018.91;7875961;30;19929;-74
2022/05/31 20:16:14;;;;;;;;;;;;;;;13.37;58.25;99020.84;7880052;30;19925;-73
2022/05/31 20:20:16;;;;;;;;;;;;;;;13.23;58.72;99028.09;7889930;30;19930;-73
2022/05/31 20:24:22;;;;;;;;;;;;;;;13.08;59.67;99028.38;7881131;30;19969;-73
2022/05/31 20:28:23;;;;;;;;;;;;;;;12.96;60.01;99030.34;7879869;30;19975;-74
2022/05/31 20:32:25;;;;;;;;;;;;;;;12.81;60.97;99028.03;7880949;30;19940;-73
2022/05/31 20:36:26;;;;;;;;;;;;;;;12.66;61.66;99034.38;7873876;30;19929;-73
2022/05/31 20:40:29;;;;;;;;;;;;;;;12.52;61.53;99041.59;7889938;30;19973;-73
2022/05/31 20:44:30;;;;;;;;;;;;;;;12.43;62.02;99036.56;7874218;30;19979;-74
2022/05/31 20:48:32;;;;;;;;;;;;;;;12.35;62.13;99041.03;7892385;30;19953;-74
2022/05/31 20:52:34;;;;;;;;;;;;;;;12.25;61.95;99040.34;7887996;30;20591;-74
2022/05/31 20:56:38;;;;;;;;;;;;;;;12.18;61.77;99050.84;7874308;30;19957;-74
2022/05/31 21:00:39;;;;;;;;;;;;;;;12.07;62.97;99058.84;7866627;30;19962;-74
2022/05/31 21:04:41;;;;;;;;;;;;;;;11.93;63.75;99060.81;7873300;30;19936;-74
2022/05/31 21:08:43;;;;;;;;;;;;;;;11.84;63.63;99059.19;7892702;30;19930;-73
2022/05/31 21:12:44;;;;;;;;;;;;;;;11.74;64.06;99066.25;7866154;30;19980;-74
2022/05/31 21:16:46;;;;;;;;;;;;;;;11.65;64.61;99066.38;7860507;30;20416;-73
2022/05/31 21:20:51;;;;;;;;;;;;;;;11.53;64.15;99076.09;7867545;30;19929;-74
2022/05/31 21:24:56;;;;;;;;;;;;;;;11.42;63.97;99071.88;7872923;30;19934;-74
2022/05/31 21:29:07;;;;;;;;;;;;;;;11.38;63.81;99072.81;7872666;30;19940;-74
2022/05/31 21:33:10;;;;;;;;;;;;;;;11.28;64.29;99075.53;7871842;30;19968;-73
2022/05/31 21:37:29;;;;;;;;;;;;;;;11.23;64.92;99079.94;7873904;30;19934;-73
2022/05/31 21:41:33;;;;;;;;;;;;;;;11.11;65.77;99080.94;7873085;30;20024;-73
2022/05/31 21:45:36;;;;;;;;;;;;;;;10.98;65.83;99081.97;7878318;30;19930;-73
2022/05/31 21:49:37;;;;;;;;;;;;;;;10.87;66.27;99090.72;7871071;30;19934;-74
2022/05/31 21:53:48;;;;;;;;;;;;;;;10.82;66.41;99087.31;7872004;30;19937;-74
2022/05/31 21:57:50;;;;;;;;;;;;;;;10.72;66.55;99079.63;7874026;30;20320;-74
2022/05/31 22:01:52;;;;;;;;;;;;;;;10.65;66.49;99075.38;7874410;30;19929;-73
2022/05/31 22:05:54;;;;;;;;;;;;;;;10.59;66.17;99077.16;7887719;30;20511;-73